Aitkin, Minnesota
Current Conditions -  °F | °C
As of 2:13 PM on Thursday 18 Dec 2014 (Local Time) from KAIT Reporting Station
Unknown Precip Unknown Precip  
Wind Chill: -4°   Ceiling: 1200
Heat Index: -4°   Visibility: 10mi
Dew Point: -8°   Wind: 0mph
Humidity: 74%   Direction: NA
Pressure: 30.21"   Gusts: NA
Location:  46.53°N, 93.71°W
Report Text: KAIT 182013Z AUTO 00000KT 10SM UP OVC012 M04/M08 A3021 RMK AO2
Loading
Personal Weather Stations






























Interactive Weather Map New forecast layout! Learn more

10-Day Weather Forecast

Advertisements
Track Severe Weather on mobile